Time;durP1;ratioP1;P1;durP2;ratioP2;P2;SDS_P1;SDS_P2;PMS_P1;PMS_P2;Temp;Humidity;BMP_temperature;BMP_pressure;BME280_temperature;BME280_humidity;BME280_pressure;Samples;Min_cycle;Max_cycle;Signal;HPM_P1;HPM_P2
2023/11/10 00:01:57;;;;;;;;;;;;;;;6.12;100.00;99376.16;6212728;23;19966;-79
2023/11/10 00:04:22;;;;;;;;;;;;;;;6.14;100.00;99394.66;6211915;23;19923;-79
2023/11/10 00:06:49;;;;;;;;;;;;;;;6.14;100.00;99390.16;6212621;23;20015;-79
2023/11/10 00:09:14;;;;;;;;;;;;;;;6.14;100.00;99384.81;6212749;23;19915;-79
2023/11/10 00:11:50;;;;;;;;;;;;;;;6.10;100.00;99378.22;6212734;23;19938;-79
2023/11/10 00:14:15;;;;;;;;;;;;;;;6.15;100.00;99380.28;6169274;23;19912;-78
2023/11/10 00:16:44;;;;;;;;;;;;;;;6.17;100.00;99384.41;6212540;23;19927;-79
2023/11/10 00:19:09;;;;;;;;;;;;;;;6.17;100.00;99381.72;6212846;23;19908;-79
2023/11/10 00:21:36;;;;;;;;;;;;;;;6.21;100.00;99377.59;6213479;23;19947;-78
2023/11/10 00:24:05;;;;;;;;;;;;;;;6.25;100.00;99385.22;6211838;23;19915;-78
2023/11/10 00:26:33;;;;;;;;;;;;;;;6.23;100.00;99377.41;6212384;23;20270;-78
2023/11/10 00:28:58;;;;;;;;;;;;;;;6.25;100.00;99371.84;6214117;23;19932;-79
2023/11/10 00:31:23;;;;;;;;;;;;;;;6.26;100.00;99354.78;6212426;23;19973;-78
2023/11/10 00:33:50;;;;;;;;;;;;;;;6.26;100.00;99373.50;6212309;23;20310;-79
2023/11/10 00:36:17;;;;;;;;;;;;;;;6.20;100.00;99365.25;6213457;23;19991;-79
2023/11/10 00:38:43;;;;;;;;;;;;;;;6.16;100.00;99361.38;6212018;23;19916;-79
2023/11/10 00:41:10;;;;;;;;;;;;;;;6.15;100.00;99362.41;6212325;23;19923;-80
2023/11/10 00:43:36;;;;;;;;;;;;;;;6.16;100.00;99361.38;6212991;23;19916;-79
2023/11/10 00:46:01;;;;;;;;;;;;;;;6.15;100.00;99337.53;6213716;23;19985;-78
2023/11/10 00:48:26;;;;;;;;;;;;;;;6.21;100.00;99348.19;6211015;23;19911;-79
2023/11/10 00:50:52;;;;;;;;;;;;;;;6.24;100.00;99352.34;6214858;23;19978;-79
2023/11/10 00:53:19;;;;;;;;;;;;;;;6.19;100.00;99342.25;6213130;23;20270;-79
2023/11/10 00:55:44;;;;;;;;;;;;;;;6.22;100.00;99341.84;6214275;23;19958;-78
2023/11/10 00:58:09;;;;;;;;;;;;;;;6.26;100.00;99357.47;6216067;23;19995;-79
2023/11/10 01:00:37;;;;;;;;;;;;;;;6.24;100.00;99351.50;6216006;23;19912;-79
2023/11/10 01:03:03;;;;;;;;;;;;;;;6.29;100.00;99349.03;6221176;23;19919;-79
2023/11/10 01:05:28;;;;;;;;;;;;;;;6.33;100.00;99350.28;6236960;23;19916;-78
2023/11/10 01:07:56;;;;;;;;;;;;;;;6.22;100.00;99347.19;6233563;23;19970;-79
2023/11/10 01:44:33;;;;;;;;;;;;;;;6.43;100.00;99328.47;6231697;22;19911;-78
2023/11/10 01:46:59;;;;;;;;;;;;;;;6.51;100.00;99331.75;6184491;23;19931;-78
2023/11/10 01:49:24;;;;;;;;;;;;;;;6.50;100.00;99321.25;6184192;23;19912;-78
2023/11/10 01:51:50;;;;;;;;;;;;;;;6.52;100.00;99317.38;6184033;23;19923;-78
2023/11/10 01:54:16;;;;;;;;;;;;;;;6.55;100.00;99318.78;6156949;23;19994;-78
2023/11/10 01:56:41;;;;;;;;;;;;;;;6.56;100.00;99300.88;6186142;23;19912;-78
2023/11/10 01:59:06;;;;;;;;;;;;;;;6.52;100.00;99303.16;6184496;23;19935;-81
2023/11/10 02:01:35;;;;;;;;;;;;;;;6.51;100.00;99294.34;6185696;23;19912;-78
2023/11/10 02:04:02;;;;;;;;;;;;;;;6.48;100.00;99300.09;6196472;23;19924;-79
2023/11/10 02:06:29;;;;;;;;;;;;;;;6.50;100.00;99297.19;6191718;23;19959;-78
2023/11/10 02:08:57;;;;;;;;;;;;;;;6.46;100.00;99295.97;6184912;23;19918;-78
2023/11/10 02:11:23;;;;;;;;;;;;;;;6.43;100.00;99289.19;6208624;23;19919;-78
2023/11/10 02:13:48;;;;;;;;;;;;;;;6.42;100.00;99282.19;6188549;23;19998;-79
2023/11/10 02:16:32;;;;;;;;;;;;;;;6.40;100.00;99292.28;6215375;23;19927;-79
2023/11/10 02:19:07;;;;;;;;;;;;;;;6.28;100.00;99294.75;6214733;23;19995;-78
2023/11/10 02:21:33;;;;;;;;;;;;;;;6.37;100.00;99282.00;6215258;23;20007;-78
2023/11/10 02:24:01;;;;;;;;;;;;;;;6.40;100.00;99281.59;6214031;23;19919;-79
2023/11/10 02:26:26;;;;;;;;;;;;;;;6.40;100.00;99292.28;6216146;23;19918;-78
2023/11/10 02:28:51;;;;;;;;;;;;;;;6.43;100.00;99277.69;6216354;23;19947;-78
2023/11/10 02:31:17;;;;;;;;;;;;;;;6.32;100.00;99289.84;6216301;23;19923;-78
2023/11/10 02:33:42;;;;;;;;;;;;;;;6.41;100.00;99283.22;6215142;23;19987;-78
2023/11/10 02:36:09;;;;;;;;;;;;;;;6.43;100.00;99281.16;6215057;23;19912;-78
2023/11/10 02:38:34;;;;;;;;;;;;;;;6.36;100.00;99289.19;6214115;23;19968;-78
2023/11/10 02:40:59;;;;;;;;;;;;;;;6.46;100.00;99279.91;6214312;23;20011;-78
2023/11/10 02:43:25;;;;;;;;;;;;;;;6.46;100.00;99290.63;6213651;23;19912;-78
2023/11/10 02:45:50;;;;;;;;;;;;;;;6.45;100.00;99288.97;6214069;23;19977;-79
2023/11/10 02:48:15;;;;;;;;;;;;;;;6.51;100.00;99291.66;6212275;23;19924;-79
2023/11/10 02:50:41;;;;;;;;;;;;;;;6.55;100.00;99293.88;6213932;23;19939;-79
2023/11/10 02:53:06;;;;;;;;;;;;;;;6.55;100.00;99291.22;6213537;23;20244;-79
2023/11/10 02:55:31;;;;;;;;;;;;;;;6.53;100.00;99294.09;6211622;23;19912;-79
2023/11/10 02:57:56;;;;;;;;;;;;;;;6.45;100.00;99288.97;6214127;23;19947;-79
2023/11/10 03:00:21;;;;;;;;;;;;;;;6.51;100.00;99297.00;6185791;23;19912;-79
2023/11/10 03:02:47;;;;;;;;;;;;;;;6.56;100.00;99290.19;6210103;23;19912;-79
2023/11/10 03:05:12;;;;;;;;;;;;;;;6.56;100.00;99287.50;6213305;23;19990;-79
2023/11/10 03:07:37;;;;;;;;;;;;;;;6.55;100.00;99284.03;6212401;23;20005;-79
2023/11/10 03:10:03;;;;;;;;;;;;;;;6.56;100.00;99288.34;6213165;23;19935;-79
2023/11/10 03:12:31;;;;;;;;;;;;;;;6.55;100.00;99284.03;6214450;23;19923;-79
2023/11/10 03:15:00;;;;;;;;;;;;;;;6.50;100.00;99282.00;6185740;23;19995;-79
2023/11/10 03:17:25;;;;;;;;;;;;;;;6.40;100.00;99281.59;6213700;23;19916;-79
2023/11/10 03:19:50;;;;;;;;;;;;;;;6.45;100.00;99284.47;6213937;23;20281;-79
2023/11/10 03:22:17;;;;;;;;;;;;;;;6.43;100.00;99283.03;6211688;23;20374;-79
2023/11/10 03:24:42;;;;;;;;;;;;;;;6.44;100.00;99287.34;6212135;23;20352;-79
2023/11/10 03:27:08;;;;;;;;;;;;;;;6.40;100.00;99286.94;6213494;23;19920;-79
2023/11/10 03:29:34;;;;;;;;;;;;;;;6.39;100.00;99289.81;6212396;23;20068;-79
2023/11/10 03:32:00;;;;;;;;;;;;;;;6.42;100.00;99287.53;6212626;23;20218;-79
2023/11/10 03:34:25;;;;;;;;;;;;;;;6.43;100.00;99297.22;6213300;23;19935;-79
2023/11/10 03:36:50;;;;;;;;;;;;;;;6.41;100.00;99293.13;6211888;23;19912;-80
2023/11/10 03:39:16;;;;;;;;;;;;;;;6.30;100.00;99303.38;6212361;23;19923;-79
2023/11/10 03:41:41;;;;;;;;;;;;;;;6.34;100.00;99290.44;6213378;23;19939;-80
2023/11/10 03:44:06;;;;;;;;;;;;;;;6.33;100.00;99302.16;6211706;23;20002;-80
2023/11/10 03:46:31;;;;;;;;;;;;;;;6.31;100.00;99293.53;6185572;23;19983;-79
2023/11/10 03:48:57;;;;;;;;;;;;;;;6.29;100.00;99291.06;6214724;23;20305;-80
2023/11/10 03:51:22;;;;;;;;;;;;;;;6.36;100.00;99285.69;6212648;23;20265;-79
2023/11/10 03:53:49;;;;;;;;;;;;;;;6.35;100.00;99287.56;6212606;23;19915;-79
2023/11/10 03:56:14;;;;;;;;;;;;;;;6.37;100.00;99290.84;6213596;23;19931;-79
2023/11/10 03:58:40;;;;;;;;;;;;;;;6.42;100.00;99284.06;6212503;23;19986;-80
2023/11/10 04:01:10;;;;;;;;;;;;;;;6.47;100.00;99284.25;6213229;23;19916;-79
2023/11/10 04:03:36;;;;;;;;;;;;;;;6.48;100.00;99292.06;6213867;23;19919;-79
2023/11/10 04:06:01;;;;;;;;;;;;;;;6.51;100.00;99294.34;6211985;23;19915;-79
2023/11/10 04:08:26;;;;;;;;;;;;;;;6.55;100.00;99300.06;6212856;23;19912;-80
2023/11/10 04:10:52;;;;;;;;;;;;;;;6.53;100.00;99292.25;6211443;23;19916;-80
2023/11/10 04:13:17;;;;;;;;;;;;;;;6.47;100.00;99290.44;6212324;23;19923;-80
2023/11/10 04:15:42;;;;;;;;;;;;;;;6.49;100.00;99293.72;6212714;23;19912;-80
2023/11/10 04:18:07;;;;;;;;;;;;;;;6.56;100.00;99282.16;6213643;23;19912;-80
2023/11/10 04:20:34;;;;;;;;;;;;;;;6.59;100.00;99284.44;6213716;23;20278;-80
2023/11/10 04:22:59;;;;;;;;;;;;;;;6.60;100.00;99291.41;6213922;23;19952;-80
2023/11/10 04:25:24;;;;;;;;;;;;;;;6.56;100.00;99290.19;6212763;23;19923;-79
2023/11/10 04:27:50;;;;;;;;;;;;;;;6.61;100.00;99293.91;6213893;23;19915;-80
2023/11/10 04:30:15;;;;;;;;;;;;;;;6.62;100.00;99284.81;6213067;23;19919;-79
2023/11/10 04:32:41;;;;;;;;;;;;;;;6.65;100.00;99283.59;6213065;23;19919;-79
2023/11/10 04:35:07;;;;;;;;;;;;;;;6.67;100.00;99292.22;6214020;23;20014;-79
2023/11/10 04:37:32;;;;;;;;;;;;;;;6.58;100.00;99288.13;6215088;23;19912;-79
2023/11/10 04:39:57;;;;;;;;;;;;;;;6.66;100.00;99291.41;6215400;23;19935;-80
2023/11/10 04:42:23;;;;;;;;;;;;;;;6.68;100.00;99283.19;6187781;23;19947;-78
2023/11/10 04:44:48;;;;;;;;;;;;;;;6.67;100.00;99278.88;6214466;23;19966;-77
2023/11/10 04:47:13;;;;;;;;;;;;;;;6.65;100.00;99283.59;6216116;23;19915;-77
2023/11/10 04:49:39;;;;;;;;;;;;;;;6.62;100.00;99278.66;6220755;23;19952;-76
2023/11/10 04:52:05;;;;;;;;;;;;;;;6.70;100.00;99273.09;6216225;23;19919;-78
2023/11/10 04:54:31;;;;;;;;;;;;;;;6.68;100.00;99288.53;6215245;23;20010;-78
2023/11/10 04:56:56;;;;;;;;;;;;;;;6.60;100.00;99278.88;6227748;23;19961;-77
2023/11/10 04:59:21;;;;;;;;;;;;;;;6.68;100.00;99288.53;6219783;23;19916;-78
2023/11/10 05:01:49;;;;;;;;;;;;;;;6.64;100.00;99288.09;6215750;23;19927;-77
2023/11/10 05:06:50;;;;;;;;;;;;;;;6.64;100.00;99292.66;6211915;23;19924;-78
2023/11/10 05:09:15;;;;;;;;;;;;;;;6.71;100.00;99292.63;6212339;23;19920;-77
2023/11/10 05:11:45;;;;;;;;;;;;;;;6.53;100.00;99302.94;6213803;23;20377;-77
2023/11/10 05:14:10;;;;;;;;;;;;;;;6.61;100.00;99298.41;6212195;23;19916;-77
2023/11/10 05:16:35;;;;;;;;;;;;;;;6.62;100.00;99300.06;6214476;23;20213;-77
2023/11/10 05:19:04;;;;;;;;;;;;;;;6.70;100.00;99299.84;6188000;23;20284;-77
2023/11/10 05:21:29;;;;;;;;;;;;;;;6.67;100.00;99297.59;6214896;23;19912;-77
2023/11/10 05:23:55;;;;;;;;;;;;;;;6.70;99.68;99302.50;6217369;23;19984;-77
2023/11/10 05:26:20;;;;;;;;;;;;;;;6.67;99.86;99305.59;6230676;23;20118;-77
2023/11/10 05:28:45;;;;;;;;;;;;;;;6.74;99.83;99302.91;6226825;23;20301;-78
2023/11/10 05:31:14;;;;;;;;;;;;;;;6.67;99.79;99311.75;6213398;23;19912;-77
2023/11/10 05:33:39;;;;;;;;;;;;;;;6.65;100.00;99311.13;6215203;23;19912;-77
2023/11/10 05:36:05;;;;;;;;;;;;;;;6.50;100.00;99311.41;6211344;23;20213;-77
2023/11/10 05:38:31;;;;;;;;;;;;;;;6.42;100.00;99305.44;6214324;23;20323;-77
2023/11/10 05:40:57;;;;;;;;;;;;;;;6.49;100.00;99308.91;6215311;23;19912;-77
2023/11/10 05:43:24;;;;;;;;;;;;;;;6.40;100.00;99302.97;6213943;23;19916;-77
2023/11/10 05:45:50;;;;;;;;;;;;;;;6.53;100.00;99307.47;6213425;23;19919;-77
2023/11/10 05:48:15;;;;;;;;;;;;;;;6.46;100.00;99299.47;6216381;23;19987;-77
2023/11/10 05:50:40;;;;;;;;;;;;;;;6.49;100.00;99298.22;6217145;23;19927;-77
2023/11/10 05:53:05;;;;;;;;;;;;;;;6.49;100.00;99299.06;6218009;23;20288;-78
2023/11/10 05:55:32;;;;;;;;;;;;;;;6.55;100.00;99293.88;6200110;23;19961;-78
2023/11/10 05:57:57;;;;;;;;;;;;;;;6.51;100.00;99291.66;6217592;23;19927;-78
2023/11/10 06:00:23;;;;;;;;;;;;;;;6.57;100.00;99298.00;6215291;23;20327;-77
2023/11/10 06:02:48;;;;;;;;;;;;;;;6.57;99.71;99298.00;6216727;23;19966;-77
2023/11/10 06:05:14;;;;;;;;;;;;;;;6.57;100.00;99291.81;6212900;23;19926;-78
2023/11/10 06:07:39;;;;;;;;;;;;;;;6.62;99.52;99306.22;6213957;23;19986;-77
2023/11/10 06:10:06;;;;;;;;;;;;;;;6.60;99.79;99297.59;6215211;23;20014;-78
2023/11/10 06:12:31;;;;;;;;;;;;;;;6.51;99.92;99310.38;6213024;23;19915;-77
2023/11/10 06:14:57;;;;;;;;;;;;;;;6.58;99.82;99314.88;6212439;23;20244;-77
2023/11/10 06:17:22;;;;;;;;;;;;;;;6.53;100.00;99307.47;6216372;23;19914;-77
2023/11/10 06:19:49;;;;;;;;;;;;;;;6.57;99.88;99314.06;6220244;23;19912;-76
2023/11/10 06:22:17;;;;;;;;;;;;;;;6.51;100.00;99321.06;6216844;23;20289;-76
2023/11/10 06:24:42;;;;;;;;;;;;;;;6.51;100.00;99323.75;6216784;23;20328;-76
2023/11/10 06:27:07;;;;;;;;;;;;;;;6.57;100.00;99318.56;6215409;23;19986;-77
2023/11/10 06:29:32;;;;;;;;;;;;;;;6.54;100.00;99319.81;6214560;23;19912;-76
2023/11/10 06:31:58;;;;;;;;;;;;;;;6.60;99.78;99323.50;6215459;23;19911;-77
2023/11/10 06:34:24;;;;;;;;;;;;;;;6.55;99.80;99318.78;6213979;23;19944;-77
2023/11/10 06:36:50;;;;;;;;;;;;;;;6.57;99.59;99330.09;6214195;23;19990;-77
2023/11/10 06:39:19;;;;;;;;;;;;;;;6.45;100.00;99342.44;6214290;23;19912;-76
2023/11/10 06:41:45;;;;;;;;;;;;;;;6.52;99.33;99336.06;6214553;23;20320;-77
2023/11/10 06:44:16;;;;;;;;;;;;;;;6.58;99.27;99342.44;6213361;23;19920;-76
2023/11/10 06:46:41;;;;;;;;;;;;;;;6.53;99.27;99345.72;6210709;23;19919;-77
2023/11/10 06:49:06;;;;;;;;;;;;;;;6.52;99.39;99344.09;6214997;23;20001;-77
2023/11/10 06:51:35;;;;;;;;;;;;;;;6.48;99.97;99344.69;6214080;23;20652;-77
2023/11/10 06:54:00;;;;;;;;;;;;;;;6.54;99.47;99346.56;6213703;23;19927;-78
2023/11/10 06:56:25;;;;;;;;;;;;;;;6.57;99.29;99345.31;6214931;23;19970;-77
2023/11/10 06:58:54;;;;;;;;;;;;;;;6.48;100.00;99352.72;6214169;23;19923;-77
2023/11/10 07:01:19;;;;;;;;;;;;;;;6.47;99.51;99349.25;6212895;23;19912;-77
2023/11/10 07:03:45;;;;;;;;;;;;;;;6.47;99.98;99351.06;6214496;23;19919;-77
2023/11/10 07:06:10;;;;;;;;;;;;;;;6.41;100.00;99347.38;6212167;23;19916;-78
2023/11/10 07:08:35;;;;;;;;;;;;;;;6.31;100.00;99352.34;6213089;23;19912;-78
2023/11/10 07:11:02;;;;;;;;;;;;;;;6.43;99.91;99348.00;6215105;23;19962;-78
2023/11/10 07:13:27;;;;;;;;;;;;;;;6.48;99.85;99337.50;6214474;23;19919;-78
2023/11/10 07:15:54;;;;;;;;;;;;;;;6.44;99.27;99344.28;6213546;23;19912;-78
2023/11/10 07:18:19;;;;;;;;;;;;;;;6.44;99.36;99355.00;6214924;23;19946;-78
2023/11/10 07:20:44;;;;;;;;;;;;;;;6.45;99.04;99350.44;6212140;23;20371;-78
2023/11/10 07:23:10;;;;;;;;;;;;;;;6.44;99.53;99368.34;6213749;23;20286;-79
2023/11/10 07:25:35;;;;;;;;;;;;;;;6.39;99.43;99336.06;6214538;23;19912;-77
2023/11/10 07:28:01;;;;;;;;;;;;;;;6.48;98.86;99350.88;6211124;23;19912;-80
2023/11/10 07:30:28;;;;;;;;;;;;;;;6.46;99.07;99349.41;6216597;23;19912;-88
2023/11/10 07:32:53;;;;;;;;;;;;;;;6.52;98.23;99354.78;6215037;23;19920;-75
2023/11/10 07:35:18;;;;;;;;;;;;;;;6.39;98.94;99360.13;6211869;23;19916;-78
2023/11/10 07:37:44;;;;;;;;;;;;;;;6.45;99.08;99351.28;6208090;23;19912;-77
2023/11/10 07:40:13;;;;;;;;;;;;;;;6.49;98.03;99357.03;6212233;23;19951;-78
2023/11/10 07:42:42;;;;;;;;;;;;;;;6.56;97.63;99357.03;6209734;23;19912;-79
2023/11/10 07:45:08;;;;;;;;;;;;;;;6.61;96.63;99359.91;6211308;23;20355;-78
2023/11/10 07:47:33;;;;;;;;;;;;;;;6.67;96.75;99356.41;6211918;23;19979;-78
2023/11/10 07:49:58;;;;;;;;;;;;;;;6.69;96.96;99365.06;6211160;23;19939;-78
2023/11/10 07:52:24;;;;;;;;;;;;;;;6.93;95.48;99355.53;6210173;23;20341;-79
2023/11/10 07:54:50;;;;;;;;;;;;;;;7.39;92.65;99353.72;6213144;23;19908;-77
2023/11/10 07:57:15;;;;;;;;;;;;;;;7.71;90.34;99361.78;6210301;23;19920;-78
2023/11/10 07:59:40;;;;;;;;;;;;;;;7.88;88.89;99361.28;6211429;23;19936;-79
2023/11/10 08:02:06;;;;;;;;;;;;;;;7.66;89.02;99366.97;6213288;23;19912;-79
2023/11/10 08:04:34;;;;;;;;;;;;;;;7.55;89.43;99360.41;6208953;23;20300;-79
2023/11/10 08:07:00;;;;;;;;;;;;;;;7.43;91.15;99370.97;6212716;23;20001;-79
2023/11/10 08:09:26;;;;;;;;;;;;;;;7.60;89.94;99362.44;6214447;23;19912;-79
2023/11/10 08:11:52;;;;;;;;;;;;;;;7.47;90.02;99373.22;6211511;23;19931;-79
2023/11/10 08:14:17;;;;;;;;;;;;;;;7.57;90.10;99361.03;6211232;23;19952;-78
2023/11/10 08:16:42;;;;;;;;;;;;;;;7.51;89.59;99361.06;6212655;23;19912;-78
2023/11/10 08:19:10;;;;;;;;;;;;;;;7.42;90.33;99366.66;6210512;23;19912;-78
2023/11/10 08:21:35;;;;;;;;;;;;;;;7.56;90.24;99358.59;6210804;23;20308;-78
2023/11/10 08:24:06;;;;;;;;;;;;;;;7.63;90.11;99355.88;6211805;23;19915;-77
2023/11/10 08:26:31;;;;;;;;;;;;;;;7.66;89.44;99358.94;6212011;23;19939;-77
2023/11/10 08:28:57;;;;;;;;;;;;;;;7.61;89.78;99361.41;6210671;23;19920;-78
2023/11/10 08:31:22;;;;;;;;;;;;;;;7.59;90.25;99347.41;6214456;23;19916;-75
2023/11/10 08:33:47;;;;;;;;;;;;;;;7.49;90.26;99353.25;6212625;23;19986;-78
2023/11/10 08:36:13;;;;;;;;;;;;;;;7.46;90.01;99353.69;6213370;23;19912;-79
2023/11/10 08:38:38;;;;;;;;;;;;;;;7.37;91.78;99362.97;6212269;23;19966;-79
2023/11/10 08:41:09;;;;;;;;;;;;;;;7.35;91.05;99357.00;6214610;23;19912;-77
2023/11/10 08:43:35;;;;;;;;;;;;;;;7.29;91.49;99358.69;6214867;23;19912;-77
2023/11/10 08:46:00;;;;;;;;;;;;;;;7.35;91.79;99360.53;6220618;23;20033;-77
2023/11/10 08:48:26;;;;;;;;;;;;;;;7.29;91.88;99366.72;6233785;23;19918;-77
2023/11/10 08:50:51;;;;;;;;;;;;;;;7.30;91.68;99363.00;6212379;23;20325;-77
2023/11/10 08:53:17;;;;;;;;;;;;;;;7.37;91.60;99355.78;6211469;23;19990;-77
2023/11/10 08:55:42;;;;;;;;;;;;;;;7.30;92.44;99376.41;6213588;23;19958;-77
2023/11/10 08:58:07;;;;;;;;;;;;;;;7.37;92.00;99382.56;6212113;23;19911;-77
2023/11/10 09:00:32;;;;;;;;;;;;;;;7.41;91.81;99378.41;6212563;23;19916;-78
2023/11/10 09:02:58;;;;;;;;;;;;;;;7.37;91.64;99377.19;6213584;23;20117;-77
2023/11/10 09:05:23;;;;;;;;;;;;;;;7.27;91.99;99374.13;6212707;23;19915;-78
2023/11/10 09:07:48;;;;;;;;;;;;;;;7.23;91.92;99375.63;6212897;23;19912;-77
2023/11/10 09:10:14;;;;;;;;;;;;;;;7.16;92.40;99364.91;6213543;23;19916;-77
2023/11/10 09:12:40;;;;;;;;;;;;;;;7.24;93.01;99377.22;6215371;23;19911;-77
2023/11/10 09:15:11;;;;;;;;;;;;;;;7.24;92.81;99364.69;6226463;23;19916;-77
2023/11/10 09:17:37;;;;;;;;;;;;;;;7.29;92.74;99358.69;6224267;23;19983;-77
2023/11/10 09:20:03;;;;;;;;;;;;;;;7.34;92.37;99361.56;6217805;23;19942;-77
2023/11/10 09:22:28;;;;;;;;;;;;;;;7.39;91.80;99368.94;6212462;23;19912;-77
2023/11/10 09:24:53;;;;;;;;;;;;;;;7.36;92.25;99358.66;6213391;23;20321;-77
2023/11/10 09:27:18;;;;;;;;;;;;;;;7.41;92.53;99364.19;6185301;23;19956;-77
2023/11/10 09:29:44;;;;;;;;;;;;;;;7.43;90.71;99357.59;6212720;23;20317;-77
2023/11/10 09:32:10;;;;;;;;;;;;;;;7.46;91.34;99350.16;6214153;23;19912;-77
2023/11/10 09:34:36;;;;;;;;;;;;;;;7.49;91.72;99353.25;6212234;23;19922;-78
2023/11/10 09:37:01;;;;;;;;;;;;;;;7.38;91.55;99357.44;6216338;23;19916;-77
2023/11/10 09:39:26;;;;;;;;;;;;;;;7.48;91.17;99353.47;6216793;23;19963;-77
2023/11/10 09:41:53;;;;;;;;;;;;;;;7.47;91.91;99341.94;6225991;23;19912;-77
2023/11/10 09:44:18;;;;;;;;;;;;;;;7.51;91.17;99356.53;6235797;23;19943;-77
2023/11/10 09:46:46;;;;;;;;;;;;;;;7.54;91.12;99355.28;6191063;23;20340;-77
2023/11/10 09:49:12;;;;;;;;;;;;;;;7.57;91.18;99360.22;6214613;23;19939;-77
2023/11/10 09:51:38;;;;;;;;;;;;;;;7.54;90.56;99356.09;6213373;23;19982;-77
2023/11/10 09:54:03;;;;;;;;;;;;;;;7.58;91.05;99357.31;6185988;23;19922;-77
2023/11/10 09:56:31;;;;;;;;;;;;;;;7.59;90.97;99360.81;6184089;23;19943;-77
2023/11/10 09:58:57;;;;;;;;;;;;;;;7.62;91.56;99364.94;6185471;23;19939;-76
2023/11/10 10:01:22;;;;;;;;;;;;;;;7.67;91.41;99355.22;6186317;23;20260;-77
2023/11/10 10:03:48;;;;;;;;;;;;;;;7.77;90.14;99357.41;6210236;23;19915;-77
2023/11/10 10:06:13;;;;;;;;;;;;;;;7.74;90.12;99347.13;6184771;23;20009;-77
2023/11/10 10:08:39;;;;;;;;;;;;;;;7.77;90.23;99349.38;6185303;23;19998;-77
2023/11/10 10:11:25;;;;;;;;;;;;;;;7.78;90.79;99350.19;6184730;23;20205;-77
2023/11/10 10:13:52;;;;;;;;;;;;;;;7.81;90.24;99345.25;6211977;23;19948;-76
2023/11/10 10:16:17;;;;;;;;;;;;;;;7.97;88.73;99335.84;6217454;23;19920;-76
2023/11/10 10:18:44;;;;;;;;;;;;;;;8.11;88.58;99335.75;6216090;23;20018;-76
2023/11/10 10:21:11;;;;;;;;;;;;;;;8.14;87.81;99329.94;6191255;23;19908;-76
2023/11/10 10:23:36;;;;;;;;;;;;;;;8.18;87.95;99336.50;6212627;23;19923;-77
2023/11/10 10:26:04;;;;;;;;;;;;;;;8.18;87.64;99334.69;6212165;23;19919;-76
2023/11/10 10:28:30;;;;;;;;;;;;;;;8.20;87.83;99321.03;6211211;23;20217;-77
2023/11/10 10:30:55;;;;;;;;;;;;;;;8.29;86.59;99322.41;6212107;23;19920;-76
2023/11/10 10:33:20;;;;;;;;;;;;;;;8.46;86.71;99322.66;6184811;23;19927;-76
2023/11/10 10:35:46;;;;;;;;;;;;;;;8.51;85.78;99310.50;6211983;23;19986;-76
2023/11/10 10:38:13;;;;;;;;;;;;;;;8.41;86.10;99319.00;6211575;23;19912;-76
2023/11/10 10:40:39;;;;;;;;;;;;;;;8.36;88.25;99314.31;6186390;23;19927;-76
2023/11/10 10:43:04;;;;;;;;;;;;;;;8.21;88.63;99311.16;6212684;23;19935;-76
2023/11/10 10:45:30;;;;;;;;;;;;;;;7.93;91.17;99320.44;6184933;23;20339;-75
2023/11/10 10:47:58;;;;;;;;;;;;;;;7.86;93.68;99323.97;6210788;23;19958;-76
2023/11/10 10:50:23;;;;;;;;;;;;;;;7.74;94.08;99304.28;6210770;23;19912;-76
2023/11/10 10:52:49;;;;;;;;;;;;;;;7.72;94.73;99309.84;6210716;23;19914;-76
2023/11/10 10:55:14;;;;;;;;;;;;;;;7.72;95.22;99315.22;6211158;23;19939;-76
2023/11/10 10:57:39;;;;;;;;;;;;;;;7.74;94.95;99306.94;6211177;23;20205;-77
2023/11/10 11:00:16;;;;;;;;;;;;;;;7.71;96.58;99320.78;6211492;23;20247;-76
2023/11/10 11:02:41;;;;;;;;;;;;;;;7.67;96.03;99311.56;6210662;23;19926;-76
2023/11/10 11:05:16;;;;;;;;;;;;;;;7.59;97.03;99309.91;6178567;23;19999;-76
2023/11/10 11:08:00;;;;;;;;;;;;;;;7.53;98.00;99306.25;6207444;23;19995;-77
2023/11/10 11:10:34;;;;;;;;;;;;;;;7.48;98.76;99316.81;6211003;23;19923;-76
2023/11/10 11:13:03;;;;;;;;;;;;;;;7.44;100.00;99297.66;6210997;23;19946;-76
2023/11/10 11:15:39;;;;;;;;;;;;;;;7.42;100.00;99299.72;6213036;23;19916;-77
2023/11/10 11:18:07;;;;;;;;;;;;;;;7.38;100.00;99309.25;6212113;23;20283;-77
2023/11/10 11:20:32;;;;;;;;;;;;;;;7.34;100.00;99301.81;6210331;23;19912;-76
2023/11/10 11:22:58;;;;;;;;;;;;;;;7.37;100.00;99298.72;6186452;23;19919;-76
2023/11/10 11:25:23;;;;;;;;;;;;;;;7.48;100.00;99302.59;6211218;23;19916;-76
2023/11/10 11:27:58;;;;;;;;;;;;;;;7.53;99.76;99302.78;6210547;23;19943;-76
2023/11/10 11:30:32;;;;;;;;;;;;;;;7.41;100.00;99303.44;6213573;23;19912;-76
2023/11/10 11:32:57;;;;;;;;;;;;;;;7.52;100.00;99298.44;6212873;23;19919;-77
2023/11/10 11:35:41;;;;;;;;;;;;;;;7.53;99.86;99305.44;6210616;23;19912;-77
2023/11/10 11:38:06;;;;;;;;;;;;;;;7.39;100.00;99300.19;6211421;23;19912;-76
2023/11/10 11:40:34;;;;;;;;;;;;;;;7.41;100.00;99298.06;6211512;23;19979;-77
2023/11/10 11:43:08;;;;;;;;;;;;;;;7.21;100.00;99297.38;6211382;23;19916;-77
2023/11/10 11:45:33;;;;;;;;;;;;;;;7.19;100.00;99296.78;6212533;23;19987;-77
2023/11/10 11:47:59;;;;;;;;;;;;;;;7.27;100.00;99272.41;6211344;23;19947;-78
2023/11/10 11:50:24;;;;;;;;;;;;;;;7.26;100.00;99284.16;6183439;23;19995;-78
2023/11/10 11:52:49;;;;;;;;;;;;;;;7.32;100.00;99299.38;6212883;23;19943;-77
2023/11/10 11:55:15;;;;;;;;;;;;;;;7.40;100.00;99299.13;6209404;23;19989;-78
2023/11/10 11:57:42;;;;;;;;;;;;;;;7.40;100.00;99285.75;6211284;23;19949;-77
2023/11/10 12:00:10;;;;;;;;;;;;;;;7.39;100.00;99300.19;6213054;23;19912;-77
2023/11/10 12:02:37;;;;;;;;;;;;;;;7.41;100.00;99292.72;6209890;23;19995;-79
2023/11/10 12:05:13;;;;;;;;;;;;;;;7.31;100.00;99294.25;6210844;23;19919;-77
2023/11/10 12:07:44;;;;;;;;;;;;;;;7.27;100.00;99293.84;6212106;23;19931;-77
2023/11/10 12:10:14;;;;;;;;;;;;;;;7.06;100.00;99295.78;6210868;23;19915;-76
2023/11/10 12:12:45;;;;;;;;;;;;;;;7.03;100.00;99287.38;6210411;23;19911;-77
2023/11/10 12:15:10;;;;;;;;;;;;;;;7.00;100.00;99285.09;6186574;23;19987;-77
2023/11/10 12:17:37;;;;;;;;;;;;;;;6.90;100.00;99283.72;6182913;23;20137;-78
2023/11/10 12:20:02;;;;;;;;;;;;;;;6.85;100.00;99298.75;6211337;23;19912;-74
2023/11/10 12:22:28;;;;;;;;;;;;;;;6.71;100.00;99288.09;6212128;23;20233;-74
2023/11/10 12:24:56;;;;;;;;;;;;;;;6.72;100.00;99289.72;6210510;23;20024;-75
2023/11/10 12:27:21;;;;;;;;;;;;;;;6.72;100.00;99294.28;6211952;23;20428;-75
2023/11/10 12:29:47;;;;;;;;;;;;;;;6.70;100.00;99290.97;6211634;23;19983;-74
2023/11/10 12:32:12;;;;;;;;;;;;;;;6.64;100.00;99282.75;6211388;23;19912;-74
2023/11/10 12:34:38;;;;;;;;;;;;;;;6.70;100.00;99291.81;6210952;23;19912;-74
2023/11/10 12:37:04;;;;;;;;;;;;;;;6.69;100.00;99300.88;6186441;23;19950;-74
2023/11/10 12:39:29;;;;;;;;;;;;;;;6.71;100.00;99298.78;6210521;23;19980;-74
2023/11/10 12:41:55;;;;;;;;;;;;;;;6.75;100.00;99277.81;6210985;23;20387;-75
2023/11/10 12:44:24;;;;;;;;;;;;;;;6.76;100.00;99290.97;6212723;23;19960;-75
2023/11/10 12:46:53;;;;;;;;;;;;;;;6.80;100.00;99297.53;6214367;23;20305;-75
2023/11/10 12:49:18;;;;;;;;;;;;;;;6.88;100.00;99290.31;6212353;23;19923;-75
2023/11/10 12:51:44;;;;;;;;;;;;;;;6.94;100.00;99287.63;6213846;23;19915;-75
2023/11/10 12:54:12;;;;;;;;;;;;;;;6.98;100.00;99285.34;6213855;23;19922;-74
2023/11/10 12:56:37;;;;;;;;;;;;;;;7.04;100.00;99287.16;6213555;23;19912;-74
2023/11/10 12:59:09;;;;;;;;;;;;;;;7.04;100.00;99279.16;6212006;23;19916;-75
2023/11/10 13:01:34;;;;;;;;;;;;;;;7.11;100.00;99282.59;6211204;23;19983;-74
2023/11/10 13:04:00;;;;;;;;;;;;;;;7.15;100.00;99282.16;6210395;23;20305;-74
2023/11/10 13:06:25;;;;;;;;;;;;;;;7.15;100.00;99287.53;6210923;23;20252;-74
2023/11/10 13:08:55;;;;;;;;;;;;;;;7.16;100.00;99279.28;6211028;23;20332;-75
2023/11/10 13:11:20;;;;;;;;;;;;;;;6.96;100.00;99292.75;6210618;23;19986;-74
2023/11/10 13:13:45;;;;;;;;;;;;;;;7.00;100.00;99296.66;6210490;23;19954;-74
2023/11/10 13:16:10;;;;;;;;;;;;;;;7.10;100.00;99291.66;6212219;23;19916;-75
2023/11/10 13:18:36;;;;;;;;;;;;;;;7.04;100.00;99284.50;6211575;23;19920;-74
2023/11/10 13:21:04;;;;;;;;;;;;;;;7.10;100.00;99288.16;6215319;23;19919;-73
2023/11/10 13:23:30;;;;;;;;;;;;;;;7.10;100.00;99283.63;6223770;23;19934;-74